Time;durP1;ratioP1;P1;durP2;ratioP2;P2;SDS_P1;SDS_P2;PMS_P1;PMS_P2;Temp;Humidity;BMP_temperature;BMP_pressure;BME280_temperature;BME280_humidity;BME280_pressure;Samples;Min_cycle;Max_cycle;Signal;HPM_P1;HPM_P2
2023/09/09 00:01:09;;;;;;;;;;;24.20;69.40;;;;;;5054889;28;19924;-67
2023/09/09 00:03:34;;;;;;;;;;;24.20;69.50;;;;;;5102358;28;20386;-66
2023/09/09 00:06:15;;;;;;;;;;;24.20;69.40;;;;;;5075057;28;20011;-66
2023/09/09 00:08:40;;;;;;;;;;;24.20;69.40;;;;;;5101603;28;20011;-66
2023/09/09 00:11:06;;;;;;;;;;;24.20;69.40;;;;;;5053326;28;20015;-66
2023/09/09 00:13:32;;;;;;;;;;;24.20;69.50;;;;;;5053536;28;19927;-66
2023/09/09 00:15:58;;;;;;;;;;;24.20;69.40;;;;;;5054596;28;20003;-66
2023/09/09 00:18:23;;;;;;;;;;;24.20;69.50;;;;;;5053810;28;19920;-66
2023/09/09 00:20:49;;;;;;;;;;;24.20;69.50;;;;;;5053228;28;19924;-67
2023/09/09 00:23:14;;;;;;;;;;;24.10;69.40;;;;;;5053667;28;19928;-66
2023/09/09 00:25:41;;;;;;;;;;;24.10;69.30;;;;;;5054594;28;19928;-66
2023/09/09 00:28:07;;;;;;;;;;;24.10;69.40;;;;;;5069992;28;19921;-67
2023/09/09 00:30:33;;;;;;;;;;;24.20;69.40;;;;;;5062626;28;19921;-66
2023/09/09 00:32:59;;;;;;;;;;;24.10;69.40;;;;;;5104621;28;19920;-67
2023/09/09 00:35:25;;;;;;;;;;;24.20;69.40;;;;;;5073091;28;19928;-67
2023/09/09 00:37:50;;;;;;;;;;;24.10;69.40;;;;;;5073339;28;19977;-66
2023/09/09 00:40:16;;;;;;;;;;;24.10;69.40;;;;;;5073003;28;19990;-66
2023/09/09 00:42:41;;;;;;;;;;;24.10;69.30;;;;;;5072977;28;19931;-66
2023/09/09 00:45:07;;;;;;;;;;;24.10;69.30;;;;;;5074274;28;20192;-66
2023/09/09 00:47:33;;;;;;;;;;;24.10;69.40;;;;;;5072851;28;19920;-66
2023/09/09 00:49:58;;;;;;;;;;;24.10;69.40;;;;;;5074450;28;20363;-66
2023/09/09 00:52:24;;;;;;;;;;;24.10;69.40;;;;;;5089978;28;20364;-67
2023/09/09 00:54:50;;;;;;;;;;;24.10;70.10;;;;;;5089793;28;19932;-67
2023/09/09 00:57:16;;;;;;;;;;;24.10;69.30;;;;;;5073002;28;19920;-66
2023/09/09 00:59:42;;;;;;;;;;;24.10;69.30;;;;;;5073947;28;20375;-67
2023/09/09 01:02:07;;;;;;;;;;;24.10;69.40;;;;;;5072488;28;19993;-66
2023/09/09 01:04:33;;;;;;;;;;;24.10;69.30;;;;;;5072953;28;19925;-66
2023/09/09 01:07:01;;;;;;;;;;;24.10;69.40;;;;;;5073998;28;19924;-66
2023/09/09 01:09:27;;;;;;;;;;;24.10;69.30;;;;;;5072818;28;19920;-67
2023/09/09 01:11:52;;;;;;;;;;;24.10;69.30;;;;;;5072477;28;19970;-66
2023/09/09 01:14:18;;;;;;;;;;;24.10;69.30;;;;;;5106549;28;19920;-66
2023/09/09 01:16:44;;;;;;;;;;;24.10;69.30;;;;;;5072633;28;19924;-66
2023/09/09 01:19:11;;;;;;;;;;;24.10;69.30;;;;;;5072284;28;19924;-66
2023/09/09 01:21:39;;;;;;;;;;;24.10;69.30;;;;;;5106234;28;19920;-66
2023/09/09 01:24:05;;;;;;;;;;;24.00;69.30;;;;;;5105989;28;19928;-66
2023/09/09 01:26:31;;;;;;;;;;;24.00;69.20;;;;;;5072403;28;19931;-66
2023/09/09 01:28:56;;;;;;;;;;;24.00;69.30;;;;;;5106229;28;20311;-67
2023/09/09 01:31:22;;;;;;;;;;;24.00;69.30;;;;;;5072068;28;19927;-66
2023/09/09 01:33:48;;;;;;;;;;;24.00;69.30;;;;;;5072378;28;20320;-66
2023/09/09 01:36:14;;;;;;;;;;;24.00;69.20;;;;;;5072166;28;19920;-66
2023/09/09 01:38:39;;;;;;;;;;;24.00;69.20;;;;;;5072027;28;20310;-67
2023/09/09 01:41:05;;;;;;;;;;;24.00;69.20;;;;;;5072903;28;19967;-66
2023/09/09 01:43:30;;;;;;;;;;;24.00;69.20;;;;;;5071732;28;19931;-66
2023/09/09 01:45:56;;;;;;;;;;;24.00;69.20;;;;;;5072060;28;19994;-66
2023/09/09 01:48:21;;;;;;;;;;;24.00;69.20;;;;;;5071649;28;20019;-66
2023/09/09 01:50:47;;;;;;;;;;;24.00;69.20;;;;;;5071720;28;19920;-67
2023/09/09 01:53:12;;;;;;;;;;;24.00;69.20;;;;;;5071873;28;19920;-67
2023/09/09 01:55:38;;;;;;;;;;;24.00;69.20;;;;;;5073064;28;19962;-66
2023/09/09 01:58:03;;;;;;;;;;;23.90;69.10;;;;;;5072801;28;19920;-67
2023/09/09 02:00:30;;;;;;;;;;;23.90;69.20;;;;;;5071678;28;20066;-66
2023/09/09 02:02:55;;;;;;;;;;;23.90;69.10;;;;;;5071749;28;20007;-66
2023/09/09 02:05:21;;;;;;;;;;;23.90;69.10;;;;;;5071736;28;20003;-67
2023/09/09 02:07:46;;;;;;;;;;;23.90;69.10;;;;;;5105630;28;19920;-66
2023/09/09 02:10:12;;;;;;;;;;;23.90;69.20;;;;;;5072772;28;19920;-66
2023/09/09 02:12:37;;;;;;;;;;;23.90;69.10;;;;;;5072456;28;19920;-67
2023/09/09 02:15:07;;;;;;;;;;;23.90;69.10;;;;;;5105483;28;19920;-67
2023/09/09 02:17:36;;;;;;;;;;;23.90;69.20;;;;;;5072556;28;19924;-66
2023/09/09 02:20:02;;;;;;;;;;;23.90;69.10;;;;;;5071519;28;19939;-66
2023/09/09 02:22:28;;;;;;;;;;;23.90;69.10;;;;;;5071212;28;19931;-66
2023/09/09 02:24:55;;;;;;;;;;;23.90;69.20;;;;;;5072507;28;19920;-66
2023/09/09 02:27:21;;;;;;;;;;;23.90;69.10;;;;;;5071459;28;19928;-67
2023/09/09 02:29:46;;;;;;;;;;;23.90;69.20;;;;;;5104868;28;20445;-66
2023/09/09 02:32:12;;;;;;;;;;;23.80;69.10;;;;;;5071415;28;19969;-66
2023/09/09 02:34:37;;;;;;;;;;;23.80;69.10;;;;;;5070918;28;20300;-66
2023/09/09 02:37:19;;;;;;;;;;;23.90;69.10;;;;;;5071330;28;19927;-67
2023/09/09 02:39:45;;;;;;;;;;;23.80;69.10;;;;;;5072132;28;19927;-66
2023/09/09 02:42:13;;;;;;;;;;;23.80;69.10;;;;;;5072329;28;19981;-66
2023/09/09 02:44:38;;;;;;;;;;;23.80;69.10;;;;;;5071177;28;20007;-66
2023/09/09 02:47:04;;;;;;;;;;;23.80;69.10;;;;;;5071167;28;20007;-66
2023/09/09 02:49:30;;;;;;;;;;;23.80;69.10;;;;;;5104822;28;19925;-66
2023/09/09 02:51:55;;;;;;;;;;;23.80;69.10;;;;;;5070921;28;19927;-66
2023/09/09 02:54:20;;;;;;;;;;;23.80;69.10;;;;;;5071327;28;20011;-66
2023/09/09 02:56:46;;;;;;;;;;;23.80;69.10;;;;;;5070846;28;19943;-66
2023/09/09 02:59:12;;;;;;;;;;;23.80;69.10;;;;;;5072217;28;19994;-67
2023/09/09 03:01:37;;;;;;;;;;;23.80;69.10;;;;;;5104600;28;19986;-66
2023/09/09 03:04:03;;;;;;;;;;;23.80;69.10;;;;;;5071011;28;19920;-66
2023/09/09 03:06:28;;;;;;;;;;;23.80;69.10;;;;;;5070926;28;20003;-66
2023/09/09 03:08:54;;;;;;;;;;;23.70;69.00;;;;;;5071061;28;19921;-66
2023/09/09 03:11:19;;;;;;;;;;;23.70;69.00;;;;;;5070690;28;19921;-67
2023/09/09 03:13:45;;;;;;;;;;;23.70;69.00;;;;;;5071043;28;19951;-66
2023/09/09 03:16:10;;;;;;;;;;;23.70;69.00;;;;;;5070947;28;20264;-67
2023/09/09 03:18:36;;;;;;;;;;;23.70;69.00;;;;;;5070624;28;19920;-66
2023/09/09 03:21:02;;;;;;;;;;;23.70;69.00;;;;;;5070736;28;19924;-66
2023/09/09 03:23:27;;;;;;;;;;;23.70;69.00;;;;;;5072371;28;19943;-67
2023/09/09 03:25:53;;;;;;;;;;;23.70;69.80;;;;;;5075122;28;19925;-66
2023/09/09 03:28:18;;;;;;;;;;;23.70;69.10;;;;;;5074343;28;19942;-67
2023/09/09 03:30:52;;;;;;;;;;;23.70;69.10;;;;;;5074632;28;19927;-66
2023/09/09 03:33:17;;;;;;;;;;;23.70;69.10;;;;;;5074530;28;19921;-67
2023/09/09 03:35:42;;;;;;;;;;;23.70;69.10;;;;;;5074480;28;20375;-66
2023/09/09 03:38:08;;;;;;;;;;;23.70;69.10;;;;;;5074470;28;19921;-66
2023/09/09 03:40:33;;;;;;;;;;;23.70;69.00;;;;;;5075273;28;19924;-66
2023/09/09 03:42:59;;;;;;;;;;;23.70;69.10;;;;;;5074099;28;20379;-67
2023/09/09 03:45:24;;;;;;;;;;;23.70;69.80;;;;;;5074006;28;19920;-66
2023/09/09 03:47:50;;;;;;;;;;;23.60;69.00;;;;;;5074513;28;19967;-66
2023/09/09 03:50:15;;;;;;;;;;;23.60;68.90;;;;;;5075178;28;19928;-66
2023/09/09 03:52:41;;;;;;;;;;;23.70;69.00;;;;;;5075361;28;19924;-66
2023/09/09 03:55:06;;;;;;;;;;;23.60;68.90;;;;;;5073916;28;19924;-66
2023/09/09 03:57:32;;;;;;;;;;;23.60;69.00;;;;;;5074214;28;19944;-66
2023/09/09 03:59:57;;;;;;;;;;;23.60;68.90;;;;;;5073762;28;19927;-66
2023/09/09 04:02:23;;;;;;;;;;;23.60;69.00;;;;;;5073675;28;19920;-66
2023/09/09 04:04:48;;;;;;;;;;;23.60;68.90;;;;;;5073930;28;19924;-66
2023/09/09 04:07:14;;;;;;;;;;;23.60;69.00;;;;;;5073758;28;19978;-68
2023/09/09 04:09:40;;;;;;;;;;;23.60;69.00;;;;;;5074995;28;19928;-67
2023/09/09 04:12:07;;;;;;;;;;;23.50;68.90;;;;;;5073977;28;19928;-66
2023/09/09 04:14:33;;;;;;;;;;;23.50;68.90;;;;;;5074854;28;19924;-66
2023/09/09 04:16:59;;;;;;;;;;;23.50;69.00;;;;;;5074891;28;19944;-66
2023/09/09 04:19:27;;;;;;;;;;;23.50;68.90;;;;;;5074686;28;19921;-67
2023/09/09 04:21:52;;;;;;;;;;;23.50;68.90;;;;;;5107373;28;20299;-66
2023/09/09 04:24:18;;;;;;;;;;;23.50;68.90;;;;;;5074818;28;19970;-66
2023/09/09 04:26:43;;;;;;;;;;;23.50;69.00;;;;;;5074851;28;20395;-67
2023/09/09 04:29:08;;;;;;;;;;;23.50;68.90;;;;;;5107170;28;20074;-67
2023/09/09 04:31:34;;;;;;;;;;;23.50;68.90;;;;;;5073609;28;19927;-66
2023/09/09 04:33:59;;;;;;;;;;;23.50;69.00;;;;;;5106689;28;20446;-66
2023/09/09 04:36:25;;;;;;;;;;;23.50;68.90;;;;;;5073408;28;19966;-67
2023/09/09 04:38:50;;;;;;;;;;;23.50;68.90;;;;;;5106927;28;19986;-67
2023/09/09 04:41:16;;;;;;;;;;;23.50;68.90;;;;;;5072818;28;19990;-66
2023/09/09 04:43:41;;;;;;;;;;;23.50;68.90;;;;;;5074304;28;19928;-68
2023/09/09 04:46:07;;;;;;;;;;;23.50;68.90;;;;;;5074157;28;20318;-67
2023/09/09 04:48:32;;;;;;;;;;;23.50;68.90;;;;;;5107128;28;20272;-69
2023/09/09 04:50:59;;;;;;;;;;;23.50;68.90;;;;;;5074114;28;20029;-67
2023/09/09 04:53:25;;;;;;;;;;;23.40;68.90;;;;;;5073249;28;19970;-66
2023/09/09 04:55:50;;;;;;;;;;;23.40;68.90;;;;;;5072714;28;20326;-67
2023/09/09 04:58:16;;;;;;;;;;;23.40;68.80;;;;;;5073040;28;19960;-66
2023/09/09 05:00:41;;;;;;;;;;;23.40;68.90;;;;;;5073987;28;19931;-66
2023/09/09 05:03:07;;;;;;;;;;;23.40;68.80;;;;;;5106512;28;19921;-66
2023/09/09 05:05:32;;;;;;;;;;;23.40;68.80;;;;;;5072803;28;19924;-66
2023/09/09 05:07:58;;;;;;;;;;;23.40;68.90;;;;;;5107035;28;19928;-66
2023/09/09 05:10:26;;;;;;;;;;;23.40;68.80;;;;;;5072427;28;19920;-68
2023/09/09 05:12:53;;;;;;;;;;;23.40;68.90;;;;;;5073926;28;19921;-67
2023/09/09 05:15:19;;;;;;;;;;;23.40;68.80;;;;;;5073659;28;20326;-66
2023/09/09 05:17:44;;;;;;;;;;;23.40;68.80;;;;;;5072344;28;20029;-67
2023/09/09 05:20:10;;;;;;;;;;;23.40;68.90;;;;;;5072619;28;19931;-66
2023/09/09 05:22:35;;;;;;;;;;;23.30;69.60;;;;;;5073413;28;19925;-66
2023/09/09 05:25:01;;;;;;;;;;;23.40;68.90;;;;;;5073725;28;19927;-66
2023/09/09 05:27:27;;;;;;;;;;;23.30;68.90;;;;;;5073545;28;19920;-67
2023/09/09 05:29:52;;;;;;;;;;;23.30;68.90;;;;;;5073428;28;20015;-66
2023/09/09 05:32:17;;;;;;;;;;;23.30;68.90;;;;;;5072376;28;20283;-66
2023/09/09 05:34:43;;;;;;;;;;;23.30;68.90;;;;;;5073294;28;20011;-66
2023/09/09 05:37:09;;;;;;;;;;;23.30;68.90;;;;;;5071916;28;19928;-66
2023/09/09 05:39:34;;;;;;;;;;;23.30;68.90;;;;;;5071982;28;19947;-67
2023/09/09 05:42:00;;;;;;;;;;;23.30;68.90;;;;;;5072808;28;19928;-67
2023/09/09 05:44:25;;;;;;;;;;;23.30;68.90;;;;;;5071908;28;19921;-66
2023/09/09 05:46:51;;;;;;;;;;;23.30;68.90;;;;;;5072479;28;19920;-66
2023/09/09 05:49:16;;;;;;;;;;;23.30;68.90;;;;;;5071799;28;19972;-66
2023/09/09 05:51:42;;;;;;;;;;;23.20;68.80;;;;;;5071678;28;19986;-66
2023/09/09 05:54:07;;;;;;;;;;;23.30;68.90;;;;;;5071951;28;20288;-68
2023/09/09 05:56:32;;;;;;;;;;;23.30;68.90;;;;;;5071873;28;20301;-67
2023/09/09 05:58:58;;;;;;;;;;;23.30;68.90;;;;;;5071566;28;20054;-67
2023/09/09 06:01:23;;;;;;;;;;;23.20;68.90;;;;;;5073092;28;19963;-66
2023/09/09 06:03:54;;;;;;;;;;;23.30;69.00;;;;;;5105342;28;19921;-66
2023/09/09 06:06:20;;;;;;;;;;;23.30;69.00;;;;;;5072793;28;19928;-67
2023/09/09 06:08:46;;;;;;;;;;;23.30;69.00;;;;;;5072642;28;20415;-66
2023/09/09 06:11:11;;;;;;;;;;;23.20;69.00;;;;;;5071702;28;19920;-67
2023/09/09 06:13:37;;;;;;;;;;;23.20;69.00;;;;;;5072660;28;20025;-67
2023/09/09 06:16:02;;;;;;;;;;;23.20;69.00;;;;;;5105500;28;19920;-66
2023/09/09 06:18:28;;;;;;;;;;;23.20;69.00;;;;;;5105467;28;20015;-66
2023/09/09 06:20:53;;;;;;;;;;;23.20;69.00;;;;;;5071163;28;19932;-67
2023/09/09 06:23:19;;;;;;;;;;;23.20;69.00;;;;;;5072385;28;20015;-66
2023/09/09 06:25:44;;;;;;;;;;;23.20;69.00;;;;;;5071569;28;19920;-66
2023/09/09 06:28:10;;;;;;;;;;;23.20;69.10;;;;;;5104887;28;19974;-66
2023/09/09 06:30:35;;;;;;;;;;;23.20;69.10;;;;;;5072624;28;19921;-67
2023/09/09 06:33:02;;;;;;;;;;;23.20;69.10;;;;;;5071331;28;19921;-66
2023/09/09 06:35:28;;;;;;;;;;;23.20;69.10;;;;;;5072340;28;19927;-67
2023/09/09 06:37:53;;;;;;;;;;;23.20;69.10;;;;;;5072314;28;19924;-67
2023/09/09 06:40:19;;;;;;;;;;;23.20;69.10;;;;;;5071940;28;20011;-66
2023/09/09 06:42:44;;;;;;;;;;;23.20;69.10;;;;;;5104705;28;19924;-66
2023/09/09 06:45:12;;;;;;;;;;;23.20;69.10;;;;;;5072361;28;20367;-66
2023/09/09 06:47:38;;;;;;;;;;;23.20;69.20;;;;;;5071024;28;19973;-66
2023/09/09 06:50:04;;;;;;;;;;;23.20;69.20;;;;;;5072271;28;19920;-66
2023/09/09 06:52:29;;;;;;;;;;;23.20;69.20;;;;;;5072196;28;20015;-67
2023/09/09 06:54:55;;;;;;;;;;;23.20;69.20;;;;;;5104882;28;19943;-66
2023/09/09 06:57:20;;;;;;;;;;;23.20;69.20;;;;;;5072236;28;20030;-66
2023/09/09 06:59:46;;;;;;;;;;;23.20;69.20;;;;;;5109106;28;19928;-67
2023/09/09 07:02:11;;;;;;;;;;;23.20;69.20;;;;;;5076176;28;19956;-67
2023/09/09 07:04:36;;;;;;;;;;;23.20;69.20;;;;;;5076211;28;19928;-67
2023/09/09 07:07:03;;;;;;;;;;;23.20;69.20;;;;;;5076177;28;20012;-67
2023/09/09 07:09:28;;;;;;;;;;;23.20;69.30;;;;;;5075220;28;19924;-66
2023/09/09 07:11:54;;;;;;;;;;;23.20;69.30;;;;;;5075003;28;20391;-66
2023/09/09 07:14:19;;;;;;;;;;;23.20;69.20;;;;;;5076065;28;19924;-67
2023/09/09 07:16:44;;;;;;;;;;;23.20;69.30;;;;;;5073054;28;20370;-67
2023/09/09 07:19:10;;;;;;;;;;;23.20;69.30;;;;;;5075104;28;19925;-67
2023/09/09 07:21:35;;;;;;;;;;;23.20;69.30;;;;;;5074777;28;19929;-67
2023/09/09 07:24:01;;;;;;;;;;;23.20;69.20;;;;;;5104534;28;19920;-67
2023/09/09 07:26:26;;;;;;;;;;;23.20;69.10;;;;;;5065836;28;20334;-67
2023/09/09 07:28:55;;;;;;;;;;;23.20;68.90;;;;;;5073784;28;19921;-66
2023/09/09 07:31:20;;;;;;;;;;;23.30;69.00;;;;;;5073574;28;20023;-67
2023/09/09 07:33:46;;;;;;;;;;;23.30;69.00;;;;;;5074009;28;19978;-68
2023/09/09 07:36:11;;;;;;;;;;;23.30;68.90;;;;;;5072402;28;19920;-67
2023/09/09 07:38:36;;;;;;;;;;;23.30;68.90;;;;;;5098571;28;19931;-68
2023/09/09 07:41:02;;;;;;;;;;;23.30;68.90;;;;;;5071962;28;19968;-67
2023/09/09 07:43:28;;;;;;;;;;;23.30;68.90;;;;;;5070143;28;19920;-68
2023/09/09 07:45:55;;;;;;;;;;;23.40;69.00;;;;;;5073443;28;20302;-68
2023/09/09 07:48:21;;;;;;;;;;;23.40;68.90;;;;;;5073945;28;19925;-67
2023/09/09 07:50:54;;;;;;;;;;;23.50;68.90;;;;;;5101178;28;19971;-68
2023/09/09 07:53:20;;;;;;;;;;;23.50;68.90;;;;;;5071125;28;19950;-67
2023/09/09 07:55:48;;;;;;;;;;;23.50;68.80;;;;;;5072784;28;20392;-68
2023/09/09 07:58:13;;;;;;;;;;;23.50;68.70;;;;;;5072903;28;19921;-67
2023/09/09 08:00:41;;;;;;;;;;;23.50;68.80;;;;;;5072755;28;20295;-68
2023/09/09 08:03:06;;;;;;;;;;;23.50;68.70;;;;;;5098909;28;19920;-68
2023/09/09 08:05:32;;;;;;;;;;;23.50;68.70;;;;;;5106984;28;19920;-67
2023/09/09 08:07:57;;;;;;;;;;;23.50;68.60;;;;;;5091946;28;19975;-66
2023/09/09 08:10:23;;;;;;;;;;;23.60;68.60;;;;;;5059755;28;19921;-68
2023/09/09 08:12:48;;;;;;;;;;;23.60;68.60;;;;;;5102999;28;19921;-68
2023/09/09 08:15:14;;;;;;;;;;;23.60;68.60;;;;;;5073266;28;19921;-68
2023/09/09 08:17:40;;;;;;;;;;;23.70;68.60;;;;;;5097199;28;20008;-68
2023/09/09 08:20:07;;;;;;;;;;;23.60;68.60;;;;;;5072905;28;20357;-67
2023/09/09 08:22:33;;;;;;;;;;;23.60;68.60;;;;;;5098598;28;19935;-67
2023/09/09 08:24:59;;;;;;;;;;;23.70;68.70;;;;;;5073490;28;19920;-68
2023/09/09 08:27:24;;;;;;;;;;;23.70;68.60;;;;;;5073184;28;19999;-68
2023/09/09 08:29:50;;;;;;;;;;;23.70;68.70;;;;;;5097702;28;20308;-68
2023/09/09 08:32:15;;;;;;;;;;;23.70;68.60;;;;;;5071733;28;19947;-68
2023/09/09 08:34:41;;;;;;;;;;;23.70;68.60;;;;;;5073558;28;20325;-66
2023/09/09 08:37:07;;;;;;;;;;;23.70;68.60;;;;;;5073856;28;19921;-68
2023/09/09 08:39:33;;;;;;;;;;;23.70;68.50;;;;;;5088550;28;19965;-67
2023/09/09 08:42:06;;;;;;;;;;;23.70;68.60;;;;;;5106028;28;19931;-68
2023/09/09 08:44:51;;;;;;;;;;;23.70;68.60;;;;;;5088115;28;19924;-67
2023/09/09 08:47:17;;;;;;;;;;;23.70;68.60;;;;;;5071785;28;19920;-66
2023/09/09 08:49:45;;;;;;;;;;;23.80;68.70;;;;;;5073850;28;19927;-70
2023/09/09 08:52:16;;;;;;;;;;;23.80;68.70;;;;;;5072179;28;19924;-67
2023/09/09 08:54:42;;;;;;;;;;;23.80;68.80;;;;;;5073307;28;19920;-67
2023/09/09 08:57:07;;;;;;;;;;;23.80;68.80;;;;;;5072594;28;19920;-68
2023/09/09 08:59:33;;;;;;;;;;;23.80;68.80;;;;;;5072452;28;19920;-69
2023/09/09 09:01:59;;;;;;;;;;;23.80;68.80;;;;;;5071967;28;19928;-68
2023/09/09 09:04:26;;;;;;;;;;;23.80;68.80;;;;;;5072856;28;19920;-68
2023/09/09 09:06:52;;;;;;;;;;;23.70;68.80;;;;;;5073241;28;20367;-67
2023/09/09 09:09:18;;;;;;;;;;;23.80;68.90;;;;;;5072011;28;19974;-68
2023/09/09 09:11:44;;;;;;;;;;;23.80;69.70;;;;;;5073284;28;19925;-68
2023/09/09 09:14:09;;;;;;;;;;;23.80;69.00;;;;;;5093222;28;19921;-68
2023/09/09 09:16:37;;;;;;;;;;;23.80;69.10;;;;;;5051997;28;20292;-68
2023/09/09 09:19:03;;;;;;;;;;;23.80;69.20;;;;;;5056896;28;19927;-68
2023/09/09 09:21:32;;;;;;;;;;;23.80;69.20;;;;;;5069737;28;20007;-69
2023/09/09 09:23:57;;;;;;;;;;;23.80;69.30;;;;;;5090786;28;20438;-68
2023/09/09 09:26:27;;;;;;;;;;;23.80;69.30;;;;;;5060662;28;19921;-69
2023/09/09 09:28:53;;;;;;;;;;;23.80;69.30;;;;;;5062506;28;20411;-67
2023/09/09 09:31:22;;;;;;;;;;;23.90;69.40;;;;;;5071496;28;19920;-68
2023/09/09 09:33:50;;;;;;;;;;;23.90;69.50;;;;;;5071338;28;19920;-68
2023/09/09 09:36:17;;;;;;;;;;;23.90;69.50;;;;;;5070465;28;19928;-68
2023/09/09 09:38:42;;;;;;;;;;;23.90;69.50;;;;;;5105362;28;19921;-68
2023/09/09 09:41:10;;;;;;;;;;;24.00;69.50;;;;;;5070526;28;19925;-69
2023/09/09 09:43:36;;;;;;;;;;;23.90;69.50;;;;;;5091739;28;19920;-66
2023/09/09 09:46:18;;;;;;;;;;;24.00;69.60;;;;;;5102826;28;19977;-68
2023/09/09 09:48:43;;;;;;;;;;;24.00;69.80;;;;;;5070047;28;19920;-68
2023/09/09 09:51:09;;;;;;;;;;;23.90;69.30;;;;;;5096440;28;19927;-69
2023/09/09 09:53:51;;;;;;;;;;;24.10;69.40;;;;;;5070184;28;19924;-65
2023/09/09 09:56:17;;;;;;;;;;;24.00;69.30;;;;;;5071743;28;20456;-66
2023/09/09 09:58:43;;;;;;;;;;;24.10;69.30;;;;;;5094453;28;19925;-66
2023/09/09 10:01:10;;;;;;;;;;;24.00;69.20;;;;;;5071238;28;19925;-67
2023/09/09 10:03:40;;;;;;;;;;;24.10;69.20;;;;;;5105009;28;20032;-66
2023/09/09 10:06:07;;;;;;;;;;;24.10;69.20;;;;;;5104881;28;20015;-67
2023/09/09 10:08:35;;;;;;;;;;;24.10;69.30;;;;;;5071833;28;19927;-66
2023/09/09 10:13:46;;;;;;;;;;;24.00;69.20;;;;;;5110322;27;19912;-66
2023/09/09 10:16:12;;;;;;;;;;;24.00;69.30;;;;;;5108924;28;20424;-67
2023/09/09 10:18:38;;;;;;;;;;;24.00;69.30;;;;;;5110218;28;19924;-67
2023/09/09 10:21:05;;;;;;;;;;;24.00;69.30;;;;;;5108808;28;19920;-66
2023/09/09 10:23:30;;;;;;;;;;;24.00;69.20;;;;;;5108992;28;19969;-66
2023/09/09 10:25:56;;;;;;;;;;;23.90;69.20;;;;;;5109095;28;20329;-66
2023/09/09 10:28:22;;;;;;;;;;;23.90;69.20;;;;;;5110037;28;19920;-66
2023/09/09 10:30:48;;;;;;;;;;;23.90;69.20;;;;;;5108655;28;19920;-67
2023/09/09 10:33:13;;;;;;;;;;;23.90;69.20;;;;;;5108594;28;20022;-67
2023/09/09 10:35:40;;;;;;;;;;;23.90;69.20;;;;;;5108903;28;20002;-66
2023/09/09 10:38:06;;;;;;;;;;;23.80;69.10;;;;;;5108792;28;19920;-66
2023/09/09 10:40:31;;;;;;;;;;;23.90;69.20;;;;;;5108449;28;19920;-66
2023/09/09 10:42:57;;;;;;;;;;;23.90;69.30;;;;;;5109892;28;19979;-67
2023/09/09 10:48:05;;;;;;;;;;;23.80;69.30;;;;;;5089864;28;19913;-66
2023/09/09 10:50:47;;;;;;;;;;;23.80;69.30;;;;;;5088901;28;19920;-67
2023/09/09 10:53:13;;;;;;;;;;;23.80;69.40;;;;;;5088604;28;20372;-66
2023/09/09 10:55:39;;;;;;;;;;;23.80;69.40;;;;;;5088809;28;19962;-66
2023/09/09 10:58:08;;;;;;;;;;;23.80;69.30;;;;;;5088706;28;19960;-66
2023/09/09 11:00:35;;;;;;;;;;;23.80;69.40;;;;;;5088968;28;20363;-68
2023/09/09 11:03:00;;;;;;;;;;;23.80;69.40;;;;;;5088227;28;19966;-66
2023/09/09 11:05:26;;;;;;;;;;;23.80;69.50;;;;;;5088729;28;19928;-67
2023/09/09 11:07:51;;;;;;;;;;;23.80;69.50;;;;;;5088204;28;19924;-66
2023/09/09 11:10:17;;;;;;;;;;;23.80;69.50;;;;;;5089585;28;19920;-66
2023/09/09 11:12:52;;;;;;;;;;;23.80;69.60;;;;;;5089468;28;19924;-67
2023/09/09 11:15:18;;;;;;;;;;;23.80;69.50;;;;;;5088106;28;19924;-66
2023/09/09 11:17:43;;;;;;;;;;;23.80;69.60;;;;;;5087990;28;19966;-67
2023/09/09 11:20:10;;;;;;;;;;;23.80;69.60;;;;;;5088094;28;19927;-66
2023/09/09 11:22:35;;;;;;;;;;;23.80;69.60;;;;;;5088342;28;19943;-66
2023/09/09 11:25:01;;;;;;;;;;;23.80;69.60;;;;;;5087231;28;19920;-66
2023/09/09 11:27:27;;;;;;;;;;;23.80;69.60;;;;;;5087728;28;19928;-66
2023/09/09 11:29:52;;;;;;;;;;;23.80;69.70;;;;;;5088168;28;19920;-66
2023/09/09 11:32:33;;;;;;;;;;;23.80;69.70;;;;;;5088099;28;20425;-66
2023/09/09 11:34:58;;;;;;;;;;;23.70;69.60;;;;;;5087794;28;19974;-66
2023/09/09 11:37:24;;;;;;;;;;;23.70;69.70;;;;;;5088020;28;19920;-66
2023/09/09 11:39:52;;;;;;;;;;;23.80;69.80;;;;;;5088997;28;19924;-66
2023/09/09 11:42:18;;;;;;;;;;;23.80;69.80;;;;;;5087760;28;19921;-66
2023/09/09 11:44:43;;;;;;;;;;;23.80;69.80;;;;;;5088824;28;19990;-66
2023/09/09 11:47:09;;;;;;;;;;;23.80;69.80;;;;;;5088570;28;20302;-68
2023/09/09 11:49:37;;;;;;;;;;;23.80;69.80;;;;;;5088855;28;19928;-66
2023/09/09 11:52:03;;;;;;;;;;;23.80;69.80;;;;;;5087727;28;20010;-67
2023/09/09 11:54:29;;;;;;;;;;;23.70;69.80;;;;;;5088674;28;20353;-66
2023/09/09 11:57:10;;;;;;;;;;;23.80;69.90;;;;;;5088642;28;19973;-66
2023/09/09 11:59:43;;;;;;;;;;;23.70;69.80;;;;;;5073070;28;20383;-67
2023/09/09 12:02:16;;;;;;;;;;;23.80;69.80;;;;;;5075005;28;19921;-67
2023/09/09 12:04:51;;;;;;;;;;;23.70;69.90;;;;;;5075119;28;19927;-66
2023/09/09 12:07:17;;;;;;;;;;;23.80;70.00;;;;;;5074888;28;19954;-66
2023/09/09 12:09:42;;;;;;;;;;;23.70;69.90;;;;;;5073629;28;20015;-67
2023/09/09 12:12:08;;;;;;;;;;;23.80;70.00;;;;;;5074777;28;20204;-66
2023/09/09 12:14:33;;;;;;;;;;;23.80;70.00;;;;;;5074079;28;19920;-66
2023/09/09 12:16:59;;;;;;;;;;;23.70;70.00;;;;;;5073758;28;19928;-67
2023/09/09 12:19:24;;;;;;;;;;;23.70;70.70;;;;;;5073431;28;19920;-66
2023/09/09 12:21:50;;;;;;;;;;;23.80;70.00;;;;;;5073707;28;19931;-66
2023/09/09 12:24:15;;;;;;;;;;;23.80;70.10;;;;;;5073586;28;19925;-66
2023/09/09 12:26:56;;;;;;;;;;;23.80;70.10;;;;;;5073365;28;20023;-66
2023/09/09 12:29:21;;;;;;;;;;;23.80;70.10;;;;;;5073225;28;19921;-66
2023/09/09 12:31:55;;;;;;;;;;;23.70;70.10;;;;;;5074583;28;19974;-66
2023/09/09 12:34:24;;;;;;;;;;;23.80;70.20;;;;;;5073401;28;20358;-66
2023/09/09 12:36:50;;;;;;;;;;;23.80;70.20;;;;;;5074457;28;20354;-67
2023/09/09 12:39:24;;;;;;;;;;;23.70;70.20;;;;;;5074255;28;20303;-67
2023/09/09 12:44:53;;;;;;;;;;;23.70;70.10;;;;;;5089925;28;19913;-66
2023/09/09 12:47:19;;;;;;;;;;;23.80;70.30;;;;;;5088994;28;19990;-67
2023/09/09 12:49:45;;;;;;;;;;;23.80;70.20;;;;;;5088802;28;19920;-66
2023/09/09 12:52:10;;;;;;;;;;;23.80;70.30;;;;;;5088595;28;20194;-68
2023/09/09 12:54:36;;;;;;;;;;;23.80;70.30;;;;;;5088474;28;19920;-67
2023/09/09 12:57:01;;;;;;;;;;;23.80;70.20;;;;;;5088775;28;19920;-66
2023/09/09 12:59:27;;;;;;;;;;;23.80;70.30;;;;;;5088700;28;20414;-67
2023/09/09 13:01:52;;;;;;;;;;;23.80;70.30;;;;;;5088470;28;19927;-66
2023/09/09 13:04:18;;;;;;;;;;;23.80;70.30;;;;;;5088271;28;20333;-67
2023/09/09 13:06:43;;;;;;;;;;;23.80;70.30;;;;;;5088432;28;19928;-66
2023/09/09 13:09:09;;;;;;;;;;;23.80;70.30;;;;;;5088153;28;19921;-66
2023/09/09 13:11:34;;;;;;;;;;;23.80;70.30;;;;;;5088116;28;19921;-67
2023/09/09 13:14:01;;;;;;;;;;;23.80;70.30;;;;;;5089432;28;20294;-66
2023/09/09 13:16:27;;;;;;;;;;;23.80;70.30;;;;;;5088330;28;20257;-67
2023/09/09 13:18:52;;;;;;;;;;;23.80;70.30;;;;;;5088019;28;19966;-66
2023/09/09 13:21:18;;;;;;;;;;;23.80;70.30;;;;;;5087848;28;19920;-66
2023/09/09 13:23:43;;;;;;;;;;;23.80;70.30;;;;;;5088078;28;19924;-67
2023/09/09 13:26:09;;;;;;;;;;;23.80;70.30;;;;;;5088304;28;19929;-66
2023/09/09 13:28:34;;;;;;;;;;;23.80;70.30;;;;;;5087815;28;19934;-68
2023/09/09 13:31:00;;;;;;;;;;;23.80;70.30;;;;;;5089140;28;19938;-67
2023/09/09 13:33:25;;;;;;;;;;;23.80;70.30;;;;;;5087689;28;19953;-66
2023/09/09 13:35:51;;;;;;;;;;;23.80;70.30;;;;;;5087941;28;19993;-66
2023/09/09 13:38:17;;;;;;;;;;;23.80;70.30;;;;;;5087497;28;20357;-66
2023/09/09 13:40:43;;;;;;;;;;;23.80;70.30;;;;;;5087867;28;19921;-67
2023/09/09 13:43:08;;;;;;;;;;;23.80;70.30;;;;;;5087339;28;19935;-66
2023/09/09 13:45:34;;;;;;;;;;;23.80;70.30;;;;;;5088714;28;20272;-67
2023/09/09 13:47:59;;;;;;;;;;;23.80;70.30;;;;;;5087642;28;19924;-66
2023/09/09 13:50:25;;;;;;;;;;;23.80;70.30;;;;;;5088646;28;19920;-66
2023/09/09 13:52:50;;;;;;;;;;;23.80;70.30;;;;;;5088468;28;19921;-66
2023/09/09 13:55:16;;;;;;;;;;;23.80;70.30;;;;;;5077892;28;19928;-66
2023/09/09 13:57:42;;;;;;;;;;;23.80;70.30;;;;;;5073734;28;19974;-68
2023/09/09 14:00:07;;;;;;;;;;;23.80;70.30;;;;;;5074974;28;19921;-67
2023/09/09 14:02:33;;;;;;;;;;;23.80;70.30;;;;;;5073679;28;19931;-66
2023/09/09 14:04:58;;;;;;;;;;;23.90;70.30;;;;;;5074994;28;19920;-66
2023/09/09 14:07:24;;;;;;;;;;;23.90;70.40;;;;;;5074748;28;20015;-66
2023/09/09 14:09:49;;;;;;;;;;;23.80;70.30;;;;;;5073496;28;19928;-66
2023/09/09 14:12:15;;;;;;;;;;;23.90;70.40;;;;;;5074952;28;19943;-66
2023/09/09 14:14:40;;;;;;;;;;;23.80;70.30;;;;;;5073706;28;19926;-66
2023/09/09 14:17:06;;;;;;;;;;;23.90;70.40;;;;;;5074713;28;19968;-67
2023/09/09 14:19:31;;;;;;;;;;;23.90;70.40;;;;;;5073321;28;19920;-66